Terminal Aerodrome Forecast
Issued by NWS

Home | Current Version | Previous Version | Text Only | Print | Product List | Glossary On
Versions: 1 2 3 4 5 6 7 8 9 10 11 12 13 14 15 16
000
FTAK31 PANC 110540
TAFATK
TAF
PATK 110540Z 1106/1206 05009KT P6SM FEW050 BKN090
     FM111700 16012G20KT P6SM -RA SCT045 OVC060
     FM120000 17010KT P6SM -RA FEW030 BKN045=

USA.gov is the U.S. government's official web portal to all federal, state and local government web resources and services.